sensor_id;sensor_type;location;lat;lon;timestamp;pressure;altitude;pressure_sealevel;temperature;humidity
32298;BME280;18782;48.984;8.548;2023-11-21T00:00:16;99300.47;;;9.39;100.00
32298;BME280;18782;48.984;8.548;2023-11-21T00:02:44;99303.19;;;9.47;100.00
32298;BME280;18782;48.984;8.548;2023-11-21T00:05:13;99305.84;;;9.51;100.00
32298;BME280;18782;48.984;8.548;2023-11-21T00:07:43;99306.81;;;9.56;100.00
32298;BME280;18782;48.984;8.548;2023-11-21T00:10:12;99303.41;;;9.59;100.00
32298;BME280;18782;48.984;8.548;2023-11-21T00:12:42;99302.66;;;9.64;100.00
32298;BME280;18782;48.984;8.548;2023-11-21T00:15:10;99305.22;;;9.64;100.00
32298;BME280;18782;48.984;8.548;2023-11-21T00:17:41;99296.72;;;9.68;100.00
32298;BME280;18782;48.984;8.548;2023-11-21T00:20:10;99292.41;;;9.66;100.00
32298;BME280;18782;48.984;8.548;2023-11-21T00:22:40;99294.16;;;9.68;100.00
32298;BME280;18782;48.984;8.548;2023-11-21T00:25:11;99288.13;;;9.66;100.00
32298;BME280;18782;48.984;8.548;2023-11-21T00:27:41;99289.09;;;9.73;100.00
32298;BME280;18782;48.984;8.548;2023-11-21T00:30:11;99292.47;;;9.71;100.00
32298;BME280;18782;48.984;8.548;2023-11-21T00:32:39;99286.44;;;9.68;100.00
32298;BME280;18782;48.984;8.548;2023-11-21T00:35:07;99283.88;;;9.67;100.00
32298;BME280;18782;48.984;8.548;2023-11-21T00:37:35;99284.66;;;9.64;100.00
32298;BME280;18782;48.984;8.548;2023-11-21T00:40:06;99291.50;;;9.64;100.00
32298;BME280;18782;48.984;8.548;2023-11-21T00:42:37;99301.78;;;9.62;100.00
32298;BME280;18782;48.984;8.548;2023-11-21T00:45:06;99306.13;;;9.66;100.00
32298;BME280;18782;48.984;8.548;2023-11-21T00:47:34;99301.88;;;9.70;100.00
32298;BME280;18782;48.984;8.548;2023-11-21T00:50:02;99299.41;;;9.75;100.00
32298;BME280;18782;48.984;8.548;2023-11-21T00:52:32;99289.13;;;9.75;100.00
32298;BME280;18782;48.984;8.548;2023-11-21T00:55:00;99292.59;;;9.77;100.00
32298;BME280;18782;48.984;8.548;2023-11-21T00:57:28;99296.00;;;9.76;100.00
32298;BME280;18782;48.984;8.548;2023-11-21T00:59:57;99288.34;;;9.80;100.00
32298;BME280;18782;48.984;8.548;2023-11-21T01:02:24;99292.69;;;9.83;100.00
32298;BME280;18782;48.984;8.548;2023-11-21T01:04:52;99290.91;;;9.79;100.00
32298;BME280;18782;48.984;8.548;2023-11-21T01:07:20;99285.72;;;9.76;100.00
32298;BME280;18782;48.984;8.548;2023-11-21T01:09:49;99290.06;;;9.80;100.00
32298;BME280;18782;48.984;8.548;2023-11-21T01:12:17;99294.25;;;9.75;100.00
32298;BME280;18782;48.984;8.548;2023-11-21T01:14:45;99290.91;;;9.77;100.00
32298;BME280;18782;48.984;8.548;2023-11-21T01:17:14;99295.13;;;9.75;100.00
32298;BME280;18782;48.984;8.548;2023-11-21T01:19:42;99290.03;;;9.77;100.00
32298;BME280;18782;48.984;8.548;2023-11-21T01:22:09;99295.19;;;9.78;100.00
32298;BME280;18782;48.984;8.548;2023-11-21T01:24:38;99298.63;;;9.80;100.00
32298;BME280;18782;48.984;8.548;2023-11-21T01:27:06;99295.13;;;9.75;100.00
32298;BME280;18782;48.984;8.548;2023-11-21T01:29:35;99306.22;;;9.73;100.00
32298;BME280;18782;48.984;8.548;2023-11-21T01:32:03;99299.38;;;9.72;100.00
32298;BME280;18782;48.984;8.548;2023-11-21T01:34:32;99303.59;;;9.70;100.00
32298;BME280;18782;48.984;8.548;2023-11-21T01:37:00;99303.59;;;9.70;100.00
32298;BME280;18782;48.984;8.548;2023-11-21T01:39:27;99302.81;;;9.72;100.00
32298;BME280;18782;48.984;8.548;2023-11-21T01:41:55;99301.09;;;9.73;100.00
32298;BME280;18782;48.984;8.548;2023-11-21T01:44:24;99299.31;;;9.68;100.00
32298;BME280;18782;48.984;8.548;2023-11-21T01:46:52;99301.09;;;9.73;100.00
32298;BME280;18782;48.984;8.548;2023-11-21T01:49:20;99301.13;;;9.76;100.00
32298;BME280;18782;48.984;8.548;2023-11-21T01:51:50;99292.59;;;9.77;100.00
32298;BME280;18782;48.984;8.548;2023-11-21T01:54:18;99306.22;;;9.73;100.00
32298;BME280;18782;48.984;8.548;2023-11-21T01:56:47;99311.34;;;9.71;100.00
32298;BME280;18782;48.984;8.548;2023-11-21T01:59:18;99307.88;;;9.71;100.00
32298;BME280;18782;48.984;8.548;2023-11-21T02:01:48;99306.22;;;9.73;100.00
32298;BME280;18782;48.984;8.548;2023-11-21T02:04:17;99309.59;;;9.68;100.00
32298;BME280;18782;48.984;8.548;2023-11-21T02:06:45;99299.31;;;9.68;100.00
32298;BME280;18782;48.984;8.548;2023-11-21T02:09:14;99302.66;;;9.64;100.00
32298;BME280;18782;48.984;8.548;2023-11-21T02:11:44;99300.91;;;9.63;100.00
32298;BME280;18782;48.984;8.548;2023-11-21T02:14:12;99309.50;;;9.65;100.00
32298;BME280;18782;48.984;8.548;2023-11-21T02:16:40;99311.28;;;9.66;100.00
32298;BME280;18782;48.984;8.548;2023-11-21T02:19:14;99308.56;;;9.60;100.00
32298;BME280;18782;48.984;8.548;2023-11-21T02:21:42;99309.38;;;9.56;100.00
32298;BME280;18782;48.984;8.548;2023-11-21T02:24:12;99314.53;;;9.59;100.00
32298;BME280;18782;48.984;8.548;2023-11-21T02:26:40;99307.66;;;9.55;100.00
32298;BME280;18782;48.984;8.548;2023-11-21T02:29:08;99312.66;;;9.49;100.00
32298;BME280;18782;48.984;8.548;2023-11-21T02:31:39;99309.78;;;9.34;100.00
32298;BME280;18782;48.984;8.548;2023-11-21T02:34:15;99312.25;;;9.28;100.00
32298;BME280;18782;48.984;8.548;2023-11-21T02:36:44;99310.50;;;9.27;100.00
32298;BME280;18782;48.984;8.548;2023-11-21T02:39:13;99301.00;;;9.21;100.00
32298;BME280;18782;48.984;8.548;2023-11-21T02:41:40;99302.59;;;9.16;100.00
32298;BME280;18782;48.984;8.548;2023-11-21T02:44:08;99294.75;;;9.08;100.00
32298;BME280;18782;48.984;8.548;2023-11-21T02:46:37;99298.94;;;9.03;100.00
32298;BME280;18782;48.984;8.548;2023-11-21T02:49:06;99296.31;;;9.00;100.00
32298;BME280;18782;48.984;8.548;2023-11-21T02:51:34;99304.75;;;8.96;100.00
32298;BME280;18782;48.984;8.548;2023-11-21T02:54:02;99297.81;;;8.92;100.00
32298;BME280;18782;48.984;8.548;2023-11-21T02:56:35;99292.69;;;8.92;100.00
32298;BME280;18782;48.984;8.548;2023-11-21T02:59:03;99292.75;;;8.94;100.00
32298;BME280;18782;48.984;8.548;2023-11-21T03:01:31;99288.38;;;8.89;100.00
32298;BME280;18782;48.984;8.548;2023-11-21T03:03:59;99298.56;;;8.86;100.00
32298;BME280;18782;48.984;8.548;2023-11-21T03:06:28;99292.66;;;8.89;100.00
32298;BME280;18782;48.984;8.548;2023-11-21T03:08:55;99292.75;;;8.94;100.00
32298;BME280;18782;48.984;8.548;2023-11-21T03:11:23;99284.09;;;8.90;100.00
32298;BME280;18782;48.984;8.548;2023-11-21T03:13:52;99282.44;;;8.92;100.00
32298;BME280;18782;48.984;8.548;2023-11-21T03:16:20;99285.81;;;8.89;100.00
32298;BME280;18782;48.984;8.548;2023-11-21T03:18:48;99287.56;;;8.92;100.00
32298;BME280;18782;48.984;8.548;2023-11-21T03:21:15;99292.69;;;8.92;100.00
32298;BME280;18782;48.984;8.548;2023-11-21T03:23:43;99290.97;;;8.91;100.00
32298;BME280;18782;48.984;8.548;2023-11-21T03:26:12;99289.31;;;8.93;100.00
32298;BME280;18782;48.984;8.548;2023-11-21T03:28:40;99294.47;;;8.93;100.00
32298;BME280;18782;48.984;8.548;2023-11-21T03:31:09;99290.97;;;8.91;100.00
32298;BME280;18782;48.984;8.548;2023-11-21T03:33:37;99297.81;;;8.92;100.00
32298;BME280;18782;48.984;8.548;2023-11-21T03:36:05;99296.19;;;8.94;100.00
32298;BME280;18782;48.984;8.548;2023-11-21T03:38:34;99296.19;;;8.94;100.00
32298;BME280;18782;48.984;8.548;2023-11-21T03:41:01;99294.50;;;8.96;100.00
32298;BME280;18782;48.984;8.548;2023-11-21T03:43:29;99298.84;;;8.99;100.00
32298;BME280;18782;48.984;8.548;2023-11-21T03:45:57;99294.59;;;9.01;100.00
32298;BME280;18782;48.984;8.548;2023-11-21T03:48:26;99297.13;;;8.99;100.00
32298;BME280;18782;48.984;8.548;2023-11-21T03:50:54;99291.19;;;9.02;100.00
32298;BME280;18782;48.984;8.548;2023-11-21T03:53:21;99293.72;;;8.99;100.00
32298;BME280;18782;48.984;8.548;2023-11-21T03:55:49;99292.78;;;8.95;100.00
32298;BME280;18782;48.984;8.548;2023-11-21T03:58:17;99295.38;;;8.97;100.00
32298;BME280;18782;48.984;8.548;2023-11-21T04:00:46;99306.50;;;8.97;100.00
32298;BME280;18782;48.984;8.548;2023-11-21T04:03:15;99304.75;;;8.96;100.00
32298;BME280;18782;48.984;8.548;2023-11-21T04:05:44;99297.06;;;8.96;100.00
32298;BME280;18782;48.984;8.548;2023-11-21T04:08:12;99304.84;;;8.99;100.00
32298;BME280;18782;48.984;8.548;2023-11-21T04:10:40;99299.72;;;8.99;100.00
32298;BME280;18782;48.984;8.548;2023-11-21T04:13:08;99309.13;;;9.00;100.00
32298;BME280;18782;48.984;8.548;2023-11-21T04:15:36;99311.63;;;8.97;100.00
32298;BME280;18782;48.984;8.548;2023-11-21T04:18:04;99311.69;;;9.00;100.00
32298;BME280;18782;48.984;8.548;2023-11-21T04:20:32;99311.78;;;9.03;100.00
32298;BME280;18782;48.984;8.548;2023-11-21T04:23:01;99311.81;;;9.06;100.00
32298;BME280;18782;48.984;8.548;2023-11-21T04:25:29;99317.06;;;9.11;100.00
32298;BME280;18782;48.984;8.548;2023-11-21T04:27:57;99320.47;;;9.11;100.00
32298;BME280;18782;48.984;8.548;2023-11-21T04:30:24;99322.16;;;9.09;100.00
32298;BME280;18782;48.984;8.548;2023-11-21T04:32:52;99328.22;;;9.13;100.00
32298;BME280;18782;48.984;8.548;2023-11-21T04:35:20;99332.47;;;9.12;100.00
32298;BME280;18782;48.984;8.548;2023-11-21T04:37:47;99335.88;;;9.11;100.00
32298;BME280;18782;48.984;8.548;2023-11-21T04:40:16;99333.44;;;9.18;100.00
32298;BME280;18782;48.984;8.548;2023-11-21T04:42:44;99329.13;;;9.15;100.00
32298;BME280;18782;48.984;8.548;2023-11-21T04:45:13;99336.81;;;9.15;100.00
32298;BME280;18782;48.984;8.548;2023-11-21T04:47:40;99343.69;;;9.16;100.00
32298;BME280;18782;48.984;8.548;2023-11-21T04:50:10;99339.38;;;9.13;100.00
32298;BME280;18782;48.984;8.548;2023-11-21T04:52:37;99336.00;;;9.18;100.00
32298;BME280;18782;48.984;8.548;2023-11-21T04:55:06;99339.38;;;9.13;100.00
32298;BME280;18782;48.984;8.548;2023-11-21T04:57:37;99341.09;;;9.14;100.00
32298;BME280;18782;48.984;8.548;2023-11-21T05:00:07;99346.22;;;9.14;100.00
32298;BME280;18782;48.984;8.548;2023-11-21T05:02:35;99346.47;;;9.27;100.00
32298;BME280;18782;48.984;8.548;2023-11-21T05:05:03;99349.88;;;9.26;100.00
32298;BME280;18782;48.984;8.548;2023-11-21T05:07:32;99348.09;;;9.23;100.00
32298;BME280;18782;48.984;8.548;2023-11-21T05:10:04;99350.75;;;9.26;100.00
32298;BME280;18782;48.984;8.548;2023-11-21T05:12:34;99354.94;;;9.23;100.00
32298;BME280;18782;48.984;8.548;2023-11-21T05:15:08;99358.44;;;9.25;100.00
32298;BME280;18782;48.984;8.548;2023-11-21T05:17:37;99351.69;;;9.30;100.00
32298;BME280;18782;48.984;8.548;2023-11-21T05:20:09;99356.63;;;9.21;100.00
32298;BME280;18782;48.984;8.548;2023-11-21T05:22:38;99359.91;;;9.13;100.00
32298;BME280;18782;48.984;8.548;2023-11-21T05:25:06;99358.22;;;9.15;100.00
32298;BME280;18782;48.984;8.548;2023-11-21T05:27:34;99362.44;;;9.12;100.00
32298;BME280;18782;48.984;8.548;2023-11-21T05:30:03;99364.97;;;9.10;100.00
32298;BME280;18782;48.984;8.548;2023-11-21T05:32:33;99364.91;;;9.07;100.00
32298;BME280;18782;48.984;8.548;2023-11-21T05:35:01;99366.66;;;9.08;100.00
32298;BME280;18782;48.984;8.548;2023-11-21T05:37:29;99370.19;;;9.13;100.00
32298;BME280;18782;48.984;8.548;2023-11-21T05:39:57;99376.09;;;9.11;100.00
32298;BME280;18782;48.984;8.548;2023-11-21T05:42:24;99387.13;;;9.05;100.00
32298;BME280;18782;48.984;8.548;2023-11-21T05:44:52;99375.91;;;9.02;100.00
32298;BME280;18782;48.984;8.548;2023-11-21T05:47:19;99382.81;;;9.04;100.00
32298;BME280;18782;48.984;8.548;2023-11-21T05:49:49;99388.00;;;9.07;100.00
32298;BME280;18782;48.984;8.548;2023-11-21T05:52:18;99382.88;;;9.07;100.00
32298;BME280;18782;48.984;8.548;2023-11-21T05:54:47;99387.13;;;9.07;100.00
32298;BME280;18782;48.984;8.548;2023-11-21T05:57:14;99391.41;;;9.06;100.00
32298;BME280;18782;48.984;8.548;2023-11-21T05:59:42;99389.72;;;9.07;100.00
32298;BME280;18782;48.984;8.548;2023-11-21T06:02:10;99394.78;;;9.04;100.00
32298;BME280;18782;48.984;8.548;2023-11-21T06:04:37;99394.81;;;9.05;100.00
32298;BME280;18782;48.984;8.548;2023-11-21T06:07:06;99399.06;;;9.03;100.00
32298;BME280;18782;48.984;8.548;2023-11-21T06:09:34;99399.06;;;9.03;100.00
32298;BME280;18782;48.984;8.548;2023-11-21T06:12:04;99399.06;;;9.03;100.00
32298;BME280;18782;48.984;8.548;2023-11-21T06:14:32;99400.59;;;8.97;100.00
32298;BME280;18782;48.984;8.548;2023-11-21T06:17:01;99408.19;;;8.91;100.00
32298;BME280;18782;48.984;8.548;2023-11-21T06:19:30;99414.03;;;8.85;100.00
32298;BME280;18782;48.984;8.548;2023-11-21T06:21:58;99407.19;;;8.84;100.00
32298;BME280;18782;48.984;8.548;2023-11-21T06:24:27;99414.13;;;8.88;100.00
32298;BME280;18782;48.984;8.548;2023-11-21T06:26:55;99419.09;;;8.82;100.00
32298;BME280;18782;48.984;8.548;2023-11-21T06:29:23;99422.50;;;8.81;100.00
32298;BME280;18782;48.984;8.548;2023-11-21T06:31:50;99424.31;;;8.85;100.00
32298;BME280;18782;48.984;8.548;2023-11-21T06:34:18;99424.22;;;8.82;100.00
32298;BME280;18782;48.984;8.548;2023-11-21T06:36:46;99420.00;;;8.84;100.00
32298;BME280;18782;48.984;8.548;2023-11-21T06:39:14;99422.56;;;8.84;100.00
32298;BME280;18782;48.984;8.548;2023-11-21T06:41:44;99426.84;;;8.83;100.00
32298;BME280;18782;48.984;8.548;2023-11-21T06:44:12;99424.16;;;8.79;100.00
32298;BME280;18782;48.984;8.548;2023-11-21T06:46:40;99431.13;;;8.83;100.00
32298;BME280;18782;48.984;8.548;2023-11-21T06:49:09;99437.13;;;8.85;100.00
32298;BME280;18782;48.984;8.548;2023-11-21T06:51:37;99431.16;;;8.86;100.00
32298;BME280;18782;48.984;8.548;2023-11-21T06:54:06;99435.63;;;8.93;100.00
32298;BME280;18782;48.984;8.548;2023-11-21T06:56:33;99438.47;;;9.05;100.00
32298;BME280;18782;48.984;8.548;2023-11-21T06:59:03;99438.59;;;9.11;100.00
32298;BME280;18782;48.984;8.548;2023-11-21T07:01:32;99447.34;;;9.20;100.00
32298;BME280;18782;48.984;8.548;2023-11-21T07:04:05;99444.88;;;9.24;100.00
32298;BME280;18782;48.984;8.548;2023-11-21T07:06:33;99449.19;;;9.27;100.00
32298;BME280;18782;48.984;8.548;2023-11-21T07:09:00;99457.75;;;9.26;100.00
32298;BME280;18782;48.984;8.548;2023-11-21T07:11:29;99461.00;;;9.19;100.00
32298;BME280;18782;48.984;8.548;2023-11-21T07:13:57;99458.38;;;9.15;100.00
32298;BME280;18782;48.984;8.548;2023-11-21T07:16:26;99465.25;;;9.17;100.00
32298;BME280;18782;48.984;8.548;2023-11-21T07:18:54;99473.16;;;9.26;100.00
32298;BME280;18782;48.984;8.548;2023-11-21T07:21:22;99475.69;;;9.24;100.00
32298;BME280;18782;48.984;8.548;2023-11-21T07:23:50;99486.84;;;9.25;100.00
32298;BME280;18782;48.984;8.548;2023-11-21T07:26:18;99482.50;;;9.24;100.00
32298;BME280;18782;48.984;8.548;2023-11-21T07:28:46;99479.81;;;9.18;100.00
32298;BME280;18782;48.984;8.548;2023-11-21T07:31:13;99478.69;;;9.06;100.00
32298;BME280;18782;48.984;8.548;2023-11-21T07:33:42;99486.63;;;9.15;100.00
32298;BME280;18782;48.984;8.548;2023-11-21T07:36:10;99491.63;;;9.09;100.00
32298;BME280;18782;48.984;8.548;2023-11-21T07:38:38;99484.66;;;9.05;100.00
32298;BME280;18782;48.984;8.548;2023-11-21T07:41:06;99503.53;;;9.07;100.00
32298;BME280;18782;48.984;8.548;2023-11-21T07:43:51;99508.53;;;9.01;100.00
32298;BME280;18782;48.984;8.548;2023-11-21T07:46:19;99501.75;;;9.03;100.00
32298;BME280;18782;48.984;8.548;2023-11-21T07:48:48;99502.81;;;9.13;100.00
32298;BME280;18782;48.984;8.548;2023-11-21T07:51:16;99503.75;;;9.17;100.00
32298;BME280;18782;48.984;8.548;2023-11-21T07:53:44;99510.47;;;9.11;100.00
32298;BME280;18782;48.984;8.548;2023-11-21T07:56:11;99512.88;;;9.04;100.00
32298;BME280;18782;48.984;8.548;2023-11-21T07:58:39;99508.63;;;9.04;100.00
32298;BME280;18782;48.984;8.548;2023-11-21T08:01:07;99512.16;;;9.09;100.00
32298;BME280;18782;48.984;8.548;2023-11-21T08:03:35;99517.94;;;9.01;100.00
32298;BME280;18782;48.984;8.548;2023-11-21T08:06:05;99522.28;;;9.03;100.00
32298;BME280;18782;48.984;8.548;2023-11-21T08:08:33;99513.75;;;9.04;100.00
32298;BME280;18782;48.984;8.548;2023-11-21T08:11:00;99522.44;;;9.09;100.00
32298;BME280;18782;48.984;8.548;2023-11-21T08:13:30;99525.25;;;9.20;100.00
32298;BME280;18782;48.984;8.548;2023-11-21T08:15:58;99519.38;;;9.26;100.00
32298;BME280;18782;48.984;8.548;2023-11-21T08:18:29;99526.81;;;9.13;100.00
32298;BME280;18782;48.984;8.548;2023-11-21T08:20:57;99528.47;;;9.13;100.00
32298;BME280;18782;48.984;8.548;2023-11-21T08:23:26;99529.38;;;9.13;100.00
32298;BME280;18782;48.984;8.548;2023-11-21T08:25:55;99531.88;;;9.12;100.00
32298;BME280;18782;48.984;8.548;2023-11-21T08:28:22;99539.84;;;9.23;100.00
32298;BME280;18782;48.984;8.548;2023-11-21T08:30:52;99536.75;;;9.36;100.00
32298;BME280;18782;48.984;8.548;2023-11-21T08:33:20;99546.31;;;9.45;100.00
32298;BME280;18782;48.984;8.548;2023-11-21T08:35:48;99548.47;;;9.64;100.00
32298;BME280;18782;48.984;8.548;2023-11-21T08:38:16;99552.69;;;10.01;100.00
32298;BME280;18782;48.984;8.548;2023-11-21T08:40:46;99553.53;;;10.00;100.00
32298;BME280;18782;48.984;8.548;2023-11-21T08:43:13;99553.28;;;9.88;100.00
32298;BME280;18782;48.984;8.548;2023-11-21T08:45:42;99550.53;;;9.80;100.00
32298;BME280;18782;48.984;8.548;2023-11-21T08:48:10;99552.97;;;9.73;100.00
32298;BME280;18782;48.984;8.548;2023-11-21T08:50:38;99554.56;;;9.67;100.00
32298;BME280;18782;48.984;8.548;2023-11-21T08:53:06;99556.22;;;9.65;100.00
32298;BME280;18782;48.984;8.548;2023-11-21T08:55:33;99551.75;;;9.55;100.00
32298;BME280;18782;48.984;8.548;2023-11-21T08:58:05;99560.75;;;9.38;100.00
32298;BME280;18782;48.984;8.548;2023-11-21T09:00:33;99562.28;;;9.30;100.00
32298;BME280;18782;48.984;8.548;2023-11-21T09:03:01;99563.25;;;9.35;100.00
32298;BME280;18782;48.984;8.548;2023-11-21T09:05:29;99571.16;;;9.44;100.00
32298;BME280;18782;48.984;8.548;2023-11-21T09:07:56;99560.34;;;9.57;100.00
32298;BME280;18782;48.984;8.548;2023-11-21T09:10:24;99565.25;;;9.48;100.00
32298;BME280;18782;48.984;8.548;2023-11-21T09:12:52;99570.41;;;9.48;100.00
32298;BME280;18782;48.984;8.548;2023-11-21T09:15:21;99576.38;;;9.47;100.00
32298;BME280;18782;48.984;8.548;2023-11-21T09:17:48;99578.06;;;9.45;100.00
32298;BME280;18782;48.984;8.548;2023-11-21T09:20:16;99582.38;;;9.48;100.00
32298;BME280;18782;48.984;8.548;2023-11-21T09:22:44;99576.47;;;9.50;100.00
32298;BME280;18782;48.984;8.548;2023-11-21T09:25:13;99599.72;;;9.56;100.00
32298;BME280;18782;48.984;8.548;2023-11-21T09:27:40;99602.47;;;9.65;100.00
32298;BME280;18782;48.984;8.548;2023-11-21T09:30:08;99601.47;;;9.59;100.00
32298;BME280;18782;48.984;8.548;2023-11-21T09:32:38;99601.56;;;9.62;100.00
32298;BME280;18782;48.984;8.548;2023-11-21T09:35:07;99612.91;;;9.72;100.00
32298;BME280;18782;48.984;8.548;2023-11-21T09:37:35;99611.22;;;9.74;100.00
32298;BME280;18782;48.984;8.548;2023-11-21T09:40:05;99609.84;;;9.88;100.00
32298;BME280;18782;48.984;8.548;2023-11-21T09:42:40;99612.41;;;9.88;100.00
32298;BME280;18782;48.984;8.548;2023-11-21T09:45:16;99615.91;;;9.91;100.00
32298;BME280;18782;48.984;8.548;2023-11-21T09:47:48;99614.28;;;9.95;100.00
32298;BME280;18782;48.984;8.548;2023-11-21T09:50:17;99622.00;;;9.95;100.00
32298;BME280;18782;48.984;8.548;2023-11-21T09:52:51;99630.66;;;9.99;100.00
32298;BME280;18782;48.984;8.548;2023-11-21T09:55:22;99629.78;;;9.98;100.00
32298;BME280;18782;48.984;8.548;2023-11-21T09:57:54;99627.25;;;10.01;100.00
32298;BME280;18782;48.984;8.548;2023-11-21T10:00:23;99627.94;;;10.32;100.00
32298;BME280;18782;48.984;8.548;2023-11-21T10:02:53;99633.06;;;10.32;100.00
32298;BME280;18782;48.984;8.548;2023-11-21T10:05:21;99627.16;;;10.34;100.00
32298;BME280;18782;48.984;8.548;2023-11-21T10:07:53;99626.56;;;10.49;100.00
32298;BME280;18782;48.984;8.548;2023-11-21T10:10:24;99632.81;;;10.60;100.00
32298;BME280;18782;48.984;8.548;2023-11-21T10:12:55;99635.50;;;10.66;100.00
32298;BME280;18782;48.984;8.548;2023-11-21T10:15:24;99633.88;;;10.71;100.00
32298;BME280;18782;48.984;8.548;2023-11-21T10:17:55;99630.28;;;10.63;100.00
32298;BME280;18782;48.984;8.548;2023-11-21T10:20:23;99631.47;;;10.81;100.00
32298;BME280;18782;48.984;8.548;2023-11-21T10:22:51;99639.97;;;10.77;100.00
32298;BME280;18782;48.984;8.548;2023-11-21T10:25:19;99624.94;;;11.01;100.00
32298;BME280;18782;48.984;8.548;2023-11-21T10:27:48;99625.41;;;10.79;100.00
32298;BME280;18782;48.984;8.548;2023-11-21T10:30:18;99625.41;;;10.79;100.00
32298;BME280;18782;48.984;8.548;2023-11-21T10:32:45;99625.41;;;10.79;100.00
32298;BME280;18782;48.984;8.548;2023-11-21T10:35:15;99633.81;;;10.70;100.00
32298;BME280;18782;48.984;8.548;2023-11-21T10:37:43;99638.03;;;10.65;100.00
32298;BME280;18782;48.984;8.548;2023-11-21T10:40:11;99638.75;;;10.59;100.00
32298;BME280;18782;48.984;8.548;2023-11-21T10:42:39;99638.66;;;10.53;100.00
32298;BME280;18782;48.984;8.548;2023-11-21T10:45:09;99638.41;;;10.41;100.00
32298;BME280;18782;48.984;8.548;2023-11-21T10:47:41;99640.69;;;10.27;100.00
32298;BME280;18782;48.984;8.548;2023-11-21T10:50:09;99643.09;;;10.19;100.00
32298;BME280;18782;48.984;8.548;2023-11-21T10:52:40;99642.91;;;10.12;100.00
32298;BME280;18782;48.984;8.548;2023-11-21T10:55:16;99647.25;;;10.13;100.00
32298;BME280;18782;48.984;8.548;2023-11-21T10:57:47;99648.16;;;10.16;100.00
32298;BME280;18782;48.984;8.548;2023-11-21T11:00:16;99648.91;;;10.12;100.00
32298;BME280;18782;48.984;8.548;2023-11-21T11:02:49;99650.50;;;10.06;100.00
32298;BME280;18782;48.984;8.548;2023-11-21T11:05:19;99647.94;;;10.06;100.00
32298;BME280;18782;48.984;8.548;2023-11-21T11:07:50;99652.91;;;9.98;100.00
32298;BME280;18782;48.984;8.548;2023-11-21T11:10:21;99654.69;;;10.01;100.00
32298;BME280;18782;48.984;8.548;2023-11-21T11:12:53;99658.06;;;9.98;100.00
32298;BME280;18782;48.984;8.548;2023-11-21T11:15:22;99659.84;;;10.02;100.00
32298;BME280;18782;48.984;8.548;2023-11-21T11:17:49;99663.09;;;10.31;100.00
32298;BME280;18782;48.984;8.548;2023-11-21T11:20:17;99664.69;;;10.26;100.00
32298;BME280;18782;48.984;8.548;2023-11-21T11:22:56;99664.53;;;10.20;100.00
32298;BME280;18782;48.984;8.548;2023-11-21T11:25:46;99664.34;;;10.11;100.00
32298;BME280;18782;48.984;8.548;2023-11-21T11:28:21;99661.78;;;10.12;100.00
32298;BME280;18782;48.984;8.548;2023-11-21T11:31:01;99667.63;;;10.04;100.00
32298;BME280;18782;48.984;8.548;2023-11-21T11:33:37;99660.75;;;10.04;100.00
32298;BME280;18782;48.984;8.548;2023-11-21T11:36:13;99658.25;;;10.07;100.00
32298;BME280;18782;48.984;8.548;2023-11-21T11:38:47;99660.00;;;10.08;100.00
32298;BME280;18782;48.984;8.548;2023-11-21T11:41:24;99660.13;;;10.14;100.00
32298;BME280;18782;48.984;8.548;2023-11-21T11:43:53;99659.25;;;10.14;100.00
32298;BME280;18782;48.984;8.548;2023-11-21T11:46:20;99658.44;;;10.16;100.00
32298;BME280;18782;48.984;8.548;2023-11-21T11:49:08;99666.94;;;10.12;100.00
32298;BME280;18782;48.984;8.548;2023-11-21T11:51:36;99672.03;;;10.09;100.00
32298;BME280;18782;48.984;8.548;2023-11-21T11:54:05;99672.81;;;10.07;100.00
32298;BME280;18782;48.984;8.548;2023-11-21T11:56:34;99676.16;;;10.03;100.00
32298;BME280;18782;48.984;8.548;2023-11-21T11:59:04;99680.28;;;9.96;100.00
32298;BME280;18782;48.984;8.548;2023-11-21T12:01:35;99672.75;;;10.04;100.00
32298;BME280;18782;48.984;8.548;2023-11-21T12:04:24;99664.34;;;10.12;100.00
32298;BME280;18782;48.984;8.548;2023-11-21T12:07:01;99672.06;;;10.12;100.00
32298;BME280;18782;48.984;8.548;2023-11-21T12:09:31;99667.84;;;10.14;100.00
32298;BME280;18782;48.984;8.548;2023-11-21T12:11:59;99667.97;;;10.20;100.00
32298;BME280;18782;48.984;8.548;2023-11-21T12:14:27;99668.84;;;10.21;100.00
32298;BME280;18782;48.984;8.548;2023-11-21T12:16:55;99668.97;;;10.26;100.00
32298;BME280;18782;48.984;8.548;2023-11-21T12:19:23;99673.84;;;10.15;100.00
32298;BME280;18782;48.984;8.548;2023-11-21T12:21:51;99676.44;;;10.15;100.00
32298;BME280;18782;48.984;8.548;2023-11-21T12:24:18;99691.13;;;10.20;100.00
32298;BME280;18782;48.984;8.548;2023-11-21T12:26:47;99675.69;;;10.20;100.00
32298;BME280;18782;48.984;8.548;2023-11-21T12:29:15;99672.28;;;10.22;100.00
32298;BME280;18782;48.984;8.548;2023-11-21T12:31:43;99675.84;;;10.27;100.00
32298;BME280;18782;48.984;8.548;2023-11-21T12:34:12;99680.94;;;10.24;100.00
32298;BME280;18782;48.984;8.548;2023-11-21T12:36:40;99681.06;;;10.30;100.00
32298;BME280;18782;48.984;8.548;2023-11-21T12:39:07;99686.22;;;10.30;100.00
32298;BME280;18782;48.984;8.548;2023-11-21T12:41:37;99694.44;;;10.15;100.00
32298;BME280;18782;48.984;8.548;2023-11-21T12:44:12;99699.69;;;10.19;100.00
32298;BME280;18782;48.984;8.548;2023-11-21T12:46:42;99708.25;;;10.20;100.00
32298;BME280;18782;48.984;8.548;2023-11-21T12:49:12;99703.09;;;10.18;100.00
32298;BME280;18782;48.984;8.548;2023-11-21T12:51:44;99699.56;;;10.13;100.00
32298;BME280;18782;48.984;8.548;2023-11-21T12:54:12;99713.22;;;10.12;100.00
32298;BME280;18782;48.984;8.548;2023-11-21T12:56:40;99704.69;;;10.13;100.00
32298;BME280;18782;48.984;8.548;2023-11-21T12:59:09;99709.97;;;10.19;100.00
32298;BME280;18782;48.984;8.548;2023-11-21T13:01:42;99713.31;;;10.15;100.00
32298;BME280;18782;48.984;8.548;2023-11-21T13:04:10;99712.53;;;10.19;100.00
32298;BME280;18782;48.984;8.548;2023-11-21T13:06:38;99713.47;;;10.23;100.00